createdAt,value
2018-09-06T09:09:35.630Z,30.17
2018-09-06T09:12:38.736Z,26.97
2018-09-06T09:15:42.022Z,31.48
2018-09-06T09:18:45.183Z,23.90
2018-09-06T09:21:48.345Z,25.13
2018-09-06T09:24:51.424Z,21.63
2018-09-06T09:27:55.341Z,21.05
2018-09-06T09:30:58.576Z,23.60
2018-09-06T09:34:01.693Z,27.17
2018-09-06T09:37:04.778Z,21.53
2018-09-06T09:40:07.984Z,22.00
2018-09-06T09:43:11.236Z,21.83
2018-09-06T09:49:16.737Z,21.90
2018-09-06T09:52:21.111Z,22.67
2018-09-06T09:55:24.206Z,21.10
2018-09-06T09:58:27.314Z,18.30
2018-09-06T10:01:35.895Z,20.80
2018-09-06T10:04:43.218Z,22.83
2018-09-06T10:07:51.874Z,20.53
2018-09-06T10:10:55.120Z,20.33
2018-09-06T10:13:58.247Z,17.23
2018-09-06T10:17:01.345Z,21.37
2018-09-06T10:20:04.494Z,19.17
2018-09-06T10:23:07.718Z,19.77
2018-09-06T10:29:39.235Z,20.47
2018-09-06T10:32:42.429Z,17.80
2018-09-06T10:35:45.518Z,15.93
2018-09-06T10:38:48.612Z,20.50
2018-09-06T10:41:51.743Z,17.50
2018-09-06T10:44:54.912Z,21.30
2018-09-06T10:47:58.070Z,21.93
2018-09-06T10:51:01.275Z,17.07
2018-09-06T10:54:04.367Z,16.00
2018-09-06T10:57:07.862Z,20.27
2018-09-06T11:00:10.980Z,19.77
2018-09-06T11:03:14.099Z,19.77
2018-09-06T11:06:17.255Z,18.30
2018-09-06T11:09:20.367Z,16.33
2018-09-06T11:12:23.491Z,17.50
2018-09-06T11:15:26.602Z,17.03
2018-09-06T11:18:29.866Z,14.53
2018-09-06T11:21:33.077Z,24.30
2018-09-06T11:24:36.060Z,17.47
2018-09-06T11:27:39.241Z,16.50
2018-09-06T11:30:42.252Z,12.57
2018-09-06T11:33:45.353Z,14.05
2018-09-06T11:36:48.423Z,18.20
2018-09-06T11:39:51.571Z,16.12
2018-09-06T11:42:54.661Z,13.90
2018-09-06T11:45:57.763Z,13.25
2018-09-06T11:49:00.867Z,15.75
2018-09-06T11:52:04.139Z,12.82
2018-09-06T11:55:08.311Z,17.27
2018-09-06T11:58:11.482Z,13.30
2018-09-06T12:01:14.623Z,13.98
2018-09-06T12:04:17.760Z,17.73
2018-09-06T12:07:20.846Z,16.90
2018-09-06T12:10:23.951Z,15.90
2018-09-06T12:13:27.059Z,13.68
2018-09-06T12:16:30.171Z,13.95
2018-09-06T12:19:33.353Z,13.45
2018-09-06T12:22:36.395Z,15.60
2018-09-06T12:25:39.542Z,13.40
2018-09-06T12:28:42.605Z,13.62
2018-09-06T12:31:45.706Z,13.20
2018-09-06T12:34:48.854Z,14.55
2018-09-06T12:37:51.946Z,15.40
2018-09-06T12:40:55.073Z,15.45
2018-09-06T12:43:58.412Z,11.68
2018-09-06T12:47:01.799Z,11.63
2018-09-06T12:50:04.915Z,10.28
2018-09-06T12:53:08.007Z,11.78
2018-09-06T12:56:11.115Z,11.03
2018-09-06T12:59:14.311Z,12.37
2018-09-06T13:02:17.405Z,10.53
2018-09-06T13:05:20.497Z,15.43
2018-09-06T13:08:23.615Z,16.95
2018-09-06T13:11:26.724Z,10.93
2018-09-06T13:14:29.820Z,12.13
2018-09-06T13:17:32.903Z,15.05
2018-09-06T13:20:36.071Z,16.07
2018-09-06T13:23:39.155Z,13.73
2018-09-06T13:26:42.256Z,11.28
2018-09-06T13:29:45.388Z,9.25
2018-09-06T13:32:48.501Z,9.40
2018-09-06T13:35:51.664Z,10.43
2018-09-06T13:38:54.803Z,8.88
2018-09-06T13:41:58.339Z,11.85
2018-09-06T13:45:01.460Z,10.65
2018-09-06T13:48:04.559Z,13.90
2018-09-06T13:51:07.739Z,12.00
2018-09-06T13:54:10.904Z,11.48
2018-09-06T13:57:13.984Z,8.68
2018-09-06T14:00:17.247Z,16.95
2018-09-06T14:03:20.320Z,12.43
2018-09-06T14:06:23.407Z,9.15
2018-09-06T14:09:26.588Z,9.95
2018-09-06T14:12:29.716Z,15.83
2018-09-06T14:15:32.827Z,16.77
2018-09-06T14:18:35.967Z,16.20
2018-09-06T14:21:39.139Z,9.55
2018-09-06T14:24:42.217Z,12.25
2018-09-06T14:27:45.426Z,13.43
2018-09-06T14:30:48.613Z,10.90
2018-09-06T14:33:51.962Z,11.60
2018-09-06T14:36:55.075Z,12.35
2018-09-06T14:39:58.300Z,11.78
2018-09-06T14:43:02.511Z,14.30
2018-09-06T14:46:05.606Z,19.32
2018-09-06T14:49:09.841Z,11.00
2018-09-06T14:52:12.935Z,12.73
2018-09-06T14:55:16.134Z,10.95
2018-09-06T14:58:19.238Z,12.07
2018-09-06T15:01:22.433Z,14.65
2018-09-06T15:04:25.468Z,11.43
2018-09-06T15:07:29.680Z,11.60
2018-09-06T15:10:32.802Z,13.70
2018-09-06T15:13:36.166Z,13.90
2018-09-06T15:16:39.432Z,11.55
2018-09-06T15:19:42.701Z,12.63
2018-09-06T15:22:45.829Z,12.58
2018-09-06T15:25:48.937Z,15.13
2018-09-06T15:28:52.234Z,13.18
2018-09-06T15:31:55.929Z,15.63
2018-09-06T15:34:59.162Z,19.48
2018-09-06T15:38:02.326Z,10.45
2018-09-06T15:41:05.469Z,12.82
2018-09-06T15:44:08.717Z,15.80
2018-09-06T15:47:11.884Z,18.15
2018-09-06T15:50:14.984Z,8.68
2018-09-06T15:53:18.074Z,11.22
2018-09-06T15:56:21.208Z,14.07
2018-09-06T15:59:24.292Z,11.73
2018-09-06T16:02:27.472Z,13.05
2018-09-06T16:05:30.575Z,11.33
2018-09-06T16:08:33.767Z,9.80
2018-09-06T16:11:36.951Z,11.83
2018-09-06T16:14:40.244Z,17.30
2018-09-06T16:17:44.023Z,13.78
2018-09-06T16:20:48.248Z,16.67
2018-09-06T16:23:51.364Z,12.40
2018-09-06T16:26:54.603Z,13.83
2018-09-06T16:29:57.691Z,15.00
2018-09-06T16:33:00.811Z,18.03
2018-09-06T16:36:03.937Z,12.70
2018-09-06T16:39:08.479Z,14.17
2018-09-06T16:42:11.576Z,14.77
2018-09-06T16:45:14.711Z,11.07
2018-09-06T16:48:17.825Z,11.87
2018-09-06T16:51:21.004Z,9.97
2018-09-06T16:54:24.095Z,12.00
2018-09-06T16:57:27.179Z,15.47
2018-09-06T17:00:30.324Z,12.87
2018-09-06T17:03:33.413Z,9.83
2018-09-06T17:06:36.550Z,14.53
2018-09-06T17:09:39.679Z,15.37
2018-09-06T17:12:42.887Z,16.20
2018-09-06T17:15:45.995Z,13.07
2018-09-06T17:18:49.067Z,11.80
2018-09-06T17:21:52.178Z,14.07
2018-09-06T17:24:55.343Z,13.13
2018-09-06T17:27:58.428Z,12.93
2018-09-06T17:31:01.607Z,13.53
2018-09-06T17:34:04.814Z,13.37
2018-09-06T17:37:07.962Z,15.07
2018-09-06T17:40:11.128Z,11.70
2018-09-06T17:43:14.219Z,13.27
2018-09-06T17:46:17.404Z,10.73
2018-09-06T17:49:20.554Z,18.53
2018-09-06T17:52:23.766Z,21.40
2018-09-06T17:55:26.902Z,16.70
2018-09-06T17:58:30.095Z,31.77
2018-09-06T18:01:35.662Z,22.07
2018-09-06T18:04:38.759Z,23.20
2018-09-06T18:07:42.052Z,24.57
2018-09-06T18:10:45.505Z,21.53
2018-09-06T18:13:48.772Z,18.43
2018-09-06T18:16:51.948Z,15.73
2018-09-06T18:19:55.067Z,19.10
2018-09-06T18:22:58.312Z,19.50
2018-09-06T18:26:01.463Z,20.93
2018-09-06T18:29:04.611Z,16.80
2018-09-06T18:32:07.804Z,18.70
2018-09-06T18:35:12.039Z,18.93
2018-09-06T18:38:15.220Z,19.30
2018-09-06T18:41:18.542Z,16.63
2018-09-06T18:44:21.644Z,16.20
2018-09-06T18:47:24.824Z,19.60
2018-09-06T18:50:27.971Z,14.07
2018-09-06T18:53:31.084Z,20.30
2018-09-06T18:56:34.304Z,17.20
2018-09-06T18:59:37.572Z,19.73
2018-09-06T19:02:40.732Z,18.83
2018-09-06T19:05:43.892Z,23.63
2018-09-06T19:08:47.112Z,17.93
2018-09-06T19:11:50.215Z,17.53
2018-09-06T19:14:53.353Z,20.30
2018-09-06T19:17:56.468Z,17.50
2018-09-06T19:20:59.655Z,21.33
2018-09-06T19:24:03.007Z,17.90
2018-09-06T19:27:06.459Z,18.10
2018-09-06T19:30:09.591Z,17.70
2018-09-06T19:33:12.727Z,17.13
2018-09-06T19:36:15.840Z,16.60
2018-09-06T19:39:19.028Z,14.87
2018-09-06T19:42:22.340Z,16.23
2018-09-06T19:45:25.497Z,14.83
2018-09-06T19:48:28.700Z,18.80
2018-09-06T19:51:31.820Z,17.20
2018-09-06T19:54:34.962Z,15.80
2018-09-06T19:57:38.115Z,17.23
2018-09-06T20:00:41.312Z,15.07
2018-09-06T20:03:45.082Z,19.23
2018-09-06T20:06:48.442Z,18.90
2018-09-06T20:09:51.611Z,18.60
2018-09-06T20:12:54.846Z,17.17
2018-09-06T20:15:58.207Z,23.33
2018-09-06T20:19:01.361Z,22.80
2018-09-06T20:22:07.421Z,23.57
2018-09-06T20:25:10.676Z,23.80
2018-09-06T20:28:15.836Z,21.00
2018-09-06T20:31:18.975Z,24.87
2018-09-06T20:34:22.116Z,21.70
2018-09-06T20:37:25.251Z,24.73
2018-09-06T20:40:28.431Z,22.00
2018-09-06T20:43:32.160Z,24.67
2018-09-06T20:46:35.277Z,21.33
2018-09-06T20:49:38.373Z,25.90
2018-09-06T20:52:41.467Z,23.97
2018-09-06T20:55:44.669Z,27.50
2018-09-06T20:58:47.763Z,24.23
2018-09-06T21:01:50.876Z,31.40
2018-09-06T21:04:54.578Z,35.23
2018-09-06T21:07:57.789Z,29.37
2018-09-06T21:11:01.167Z,35.33
2018-09-06T21:14:04.347Z,33.33
2018-09-06T21:17:07.630Z,35.67
2018-09-06T21:20:10.727Z,36.47
2018-09-06T21:23:13.822Z,38.30
2018-09-06T21:26:16.916Z,49.90
2018-09-06T21:29:19.987Z,58.07
2018-09-06T21:32:23.097Z,56.73
2018-09-06T21:35:26.236Z,48.17
2018-09-06T21:38:29.308Z,60.33
2018-09-06T21:41:32.427Z,56.40
2018-09-06T21:44:35.517Z,66.97
2018-09-06T21:47:38.626Z,59.13
2018-09-06T21:50:41.731Z,74.57
2018-09-06T21:53:44.822Z,61.77
2018-09-06T21:56:48.066Z,56.80
2018-09-06T21:59:51.143Z,74.33
2018-09-06T22:02:59.536Z,58.47
2018-09-06T22:06:02.638Z,58.10
2018-09-06T22:09:09.560Z,80.77
2018-09-06T22:12:16.695Z,65.10
2018-09-06T22:15:20.019Z,61.60
2018-09-06T22:18:23.144Z,69.37
2018-09-06T22:21:26.364Z,64.23
2018-09-06T22:24:29.459Z,64.23
2018-09-06T22:27:32.567Z,79.37
2018-09-06T22:30:35.687Z,74.27
2018-09-06T22:33:38.823Z,68.47
2018-09-06T22:36:41.906Z,74.47
2018-09-06T22:39:45.083Z,72.43
2018-09-06T22:42:48.188Z,72.33
2018-09-06T22:45:51.339Z,94.13
2018-09-06T22:48:54.468Z,77.77
2018-09-06T22:51:57.540Z,85.37
2018-09-06T22:55:00.635Z,89.00
2018-09-06T22:58:03.880Z,81.57
2018-09-06T23:01:07.130Z,85.13
2018-09-06T23:04:10.303Z,95.97
2018-09-06T23:07:13.449Z,93.10
2018-09-06T23:10:16.684Z,88.60
2018-09-06T23:13:19.760Z,83.57
2018-09-06T23:16:22.895Z,85.40
2018-09-06T23:19:25.992Z,77.20
2018-09-06T23:22:29.059Z,70.03
2018-09-06T23:25:32.153Z,69.53
2018-09-06T23:28:35.490Z,77.20
2018-09-06T23:31:38.564Z,85.63
2018-09-06T23:34:41.800Z,88.00
2018-09-06T23:37:44.943Z,84.30
2018-09-06T23:40:53.499Z,83.33
2018-09-06T23:43:56.595Z,81.83
2018-09-06T23:46:59.927Z,81.13
2018-09-06T23:50:03.072Z,81.20
2018-09-06T23:53:06.330Z,84.33
2018-09-06T23:56:09.515Z,73.27
2018-09-06T23:59:12.710Z,74.33
